sensor_id;sensor_type;location;lat;lon;timestamp;temperature;humidity
18805;DHT22;9530;48.930;9.526;2023-03-24T00:01:32;12.60;99.90
18805;DHT22;9530;48.930;9.526;2023-03-24T00:03:58;12.60;99.90
18805;DHT22;9530;48.930;9.526;2023-03-24T00:06:25;12.50;99.90
18805;DHT22;9530;48.930;9.526;2023-03-24T00:08:52;12.50;99.90
18805;DHT22;9530;48.930;9.526;2023-03-24T00:11:20;12.40;99.90
18805;DHT22;9530;48.930;9.526;2023-03-24T00:13:47;12.40;99.90
18805;DHT22;9530;48.930;9.526;2023-03-24T00:16:14;12.30;99.90
18805;DHT22;9530;48.930;9.526;2023-03-24T00:18:44;12.30;99.90
18805;DHT22;9530;48.930;9.526;2023-03-24T00:21:14;12.30;99.90
18805;DHT22;9530;48.930;9.526;2023-03-24T00:23:42;12.20;99.90
18805;DHT22;9530;48.930;9.526;2023-03-24T00:26:12;12.20;99.90
18805;DHT22;9530;48.930;9.526;2023-03-24T00:28:42;12.20;99.90
18805;DHT22;9530;48.930;9.526;2023-03-24T00:31:10;12.30;99.90
18805;DHT22;9530;48.930;9.526;2023-03-24T00:33:39;12.30;99.90
18805;DHT22;9530;48.930;9.526;2023-03-24T00:36:08;12.30;99.90
18805;DHT22;9530;48.930;9.526;2023-03-24T00:38:38;12.30;99.90
18805;DHT22;9530;48.930;9.526;2023-03-24T00:41:06;12.40;99.90
18805;DHT22;9530;48.930;9.526;2023-03-24T00:43:33;12.50;99.90
18805;DHT22;9530;48.930;9.526;2023-03-24T00:46:03;12.50;99.90
18805;DHT22;9530;48.930;9.526;2023-03-24T00:48:30;12.60;99.90
18805;DHT22;9530;48.930;9.526;2023-03-24T00:51:00;12.70;99.90
18805;DHT22;9530;48.930;9.526;2023-03-24T00:53:27;12.70;99.90
18805;DHT22;9530;48.930;9.526;2023-03-24T00:55:55;12.80;99.90
18805;DHT22;9530;48.930;9.526;2023-03-24T00:58:23;12.70;99.90
18805;DHT22;9530;48.930;9.526;2023-03-24T01:00:53;12.80;99.90
18805;DHT22;9530;48.930;9.526;2023-03-24T01:03:22;12.70;99.90
18805;DHT22;9530;48.930;9.526;2023-03-24T01:05:52;12.80;99.90
18805;DHT22;9530;48.930;9.526;2023-03-24T01:08:22;12.80;99.90
18805;DHT22;9530;48.930;9.526;2023-03-24T01:10:50;12.70;99.90
18805;DHT22;9530;48.930;9.526;2023-03-24T01:13:18;12.70;99.90
18805;DHT22;9530;48.930;9.526;2023-03-24T01:15:45;12.80;99.90
18805;DHT22;9530;48.930;9.526;2023-03-24T01:18:12;12.80;99.90
18805;DHT22;9530;48.930;9.526;2023-03-24T01:20:41;12.80;99.90
18805;DHT22;9530;48.930;9.526;2023-03-24T01:23:11;12.80;99.90
18805;DHT22;9530;48.930;9.526;2023-03-24T01:25:38;12.70;99.90
18805;DHT22;9530;48.930;9.526;2023-03-24T01:28:07;12.70;99.90
18805;DHT22;9530;48.930;9.526;2023-03-24T01:30:33;12.70;99.90
18805;DHT22;9530;48.930;9.526;2023-03-24T01:33:00;12.70;99.90
18805;DHT22;9530;48.930;9.526;2023-03-24T01:35:27;12.70;99.90
18805;DHT22;9530;48.930;9.526;2023-03-24T01:37:55;12.70;99.90
18805;DHT22;9530;48.930;9.526;2023-03-24T01:40:24;12.80;99.90
18805;DHT22;9530;48.930;9.526;2023-03-24T01:42:51;12.80;99.90
18805;DHT22;9530;48.930;9.526;2023-03-24T01:45:41;12.70;99.90
18805;DHT22;9530;48.930;9.526;2023-03-24T01:48:11;12.60;99.90
18805;DHT22;9530;48.930;9.526;2023-03-24T01:50:40;12.60;99.90
18805;DHT22;9530;48.930;9.526;2023-03-24T01:53:09;12.60;99.90
18805;DHT22;9530;48.930;9.526;2023-03-24T01:55:36;12.50;99.90
18805;DHT22;9530;48.930;9.526;2023-03-24T01:58:04;12.50;99.90
18805;DHT22;9530;48.930;9.526;2023-03-24T02:00:33;12.50;99.90
18805;DHT22;9530;48.930;9.526;2023-03-24T02:03:10;12.50;99.90
18805;DHT22;9530;48.930;9.526;2023-03-24T02:05:40;12.50;99.90
18805;DHT22;9530;48.930;9.526;2023-03-24T02:08:15;12.60;99.90
18805;DHT22;9530;48.930;9.526;2023-03-24T02:10:43;12.70;99.90
18805;DHT22;9530;48.930;9.526;2023-03-24T02:13:10;12.80;99.90
18805;DHT22;9530;48.930;9.526;2023-03-24T02:15:40;12.80;99.90
18805;DHT22;9530;48.930;9.526;2023-03-24T02:18:13;12.70;99.90
18805;DHT22;9530;48.930;9.526;2023-03-24T02:26:49;12.60;99.90
18805;DHT22;9530;48.930;9.526;2023-03-24T02:29:52;12.60;99.90
18805;DHT22;9530;48.930;9.526;2023-03-24T02:32:53;12.60;99.90
18805;DHT22;9530;48.930;9.526;2023-03-24T02:35:56;12.50;99.90
18805;DHT22;9530;48.930;9.526;2023-03-24T02:41:22;12.50;99.90
18805;DHT22;9530;48.930;9.526;2023-03-24T02:43:59;12.40;99.90
18805;DHT22;9530;48.930;9.526;2023-03-24T02:46:34;12.40;99.90
18805;DHT22;9530;48.930;9.526;2023-03-24T02:49:09;12.50;99.90
18805;DHT22;9530;48.930;9.526;2023-03-24T02:51:46;12.50;99.90
18805;DHT22;9530;48.930;9.526;2023-03-24T02:54:18;12.40;99.90
18805;DHT22;9530;48.930;9.526;2023-03-24T02:56:52;12.50;99.90
18805;DHT22;9530;48.930;9.526;2023-03-24T02:59:24;12.50;99.90
18805;DHT22;9530;48.930;9.526;2023-03-24T03:01:57;12.60;99.90
18805;DHT22;9530;48.930;9.526;2023-03-24T03:04:29;12.50;99.90
18805;DHT22;9530;48.930;9.526;2023-03-24T03:06:59;12.40;99.90
18805;DHT22;9530;48.930;9.526;2023-03-24T03:09:31;12.50;99.90
18805;DHT22;9530;48.930;9.526;2023-03-24T03:12:02;12.50;99.90
18805;DHT22;9530;48.930;9.526;2023-03-24T03:14:34;12.50;99.90
18805;DHT22;9530;48.930;9.526;2023-03-24T03:17:05;12.60;99.90
18805;DHT22;9530;48.930;9.526;2023-03-24T03:19:36;12.70;99.90
18805;DHT22;9530;48.930;9.526;2023-03-24T03:22:05;12.90;99.90
18805;DHT22;9530;48.930;9.526;2023-03-24T03:24:37;12.90;99.90
18805;DHT22;9530;48.930;9.526;2023-03-24T03:27:11;12.90;99.90
18805;DHT22;9530;48.930;9.526;2023-03-24T03:29:42;13.10;99.90
18805;DHT22;9530;48.930;9.526;2023-03-24T03:32:14;13.20;99.90
18805;DHT22;9530;48.930;9.526;2023-03-24T03:34:47;13.40;99.90
18805;DHT22;9530;48.930;9.526;2023-03-24T03:37:21;13.50;99.90
18805;DHT22;9530;48.930;9.526;2023-03-24T03:39:53;13.50;99.90
18805;DHT22;9530;48.930;9.526;2023-03-24T03:42:22;13.50;99.90
18805;DHT22;9530;48.930;9.526;2023-03-24T03:44:49;13.50;99.90
18805;DHT22;9530;48.930;9.526;2023-03-24T03:47:15;13.60;99.90
18805;DHT22;9530;48.930;9.526;2023-03-24T03:49:44;13.60;99.90
18805;DHT22;9530;48.930;9.526;2023-03-24T03:52:11;13.60;99.90
18805;DHT22;9530;48.930;9.526;2023-03-24T03:54:40;13.60;99.90
18805;DHT22;9530;48.930;9.526;2023-03-24T03:57:08;13.50;99.90
18805;DHT22;9530;48.930;9.526;2023-03-24T03:59:38;13.40;99.90
18805;DHT22;9530;48.930;9.526;2023-03-24T04:02:14;13.40;99.90
18805;DHT22;9530;48.930;9.526;2023-03-24T04:05:00;13.40;99.90
18805;DHT22;9530;48.930;9.526;2023-03-24T04:07:36;13.30;99.90
18805;DHT22;9530;48.930;9.526;2023-03-24T04:10:12;13.30;99.90
18805;DHT22;9530;48.930;9.526;2023-03-24T04:12:54;13.50;99.90
18805;DHT22;9530;48.930;9.526;2023-03-24T04:15:45;13.60;99.90
18805;DHT22;9530;48.930;9.526;2023-03-24T04:18:31;13.60;99.90
18805;DHT22;9530;48.930;9.526;2023-03-24T04:21:13;13.50;99.90
18805;DHT22;9530;48.930;9.526;2023-03-24T04:23:50;13.60;99.90
18805;DHT22;9530;48.930;9.526;2023-03-24T04:26:26;13.60;99.90
18805;DHT22;9530;48.930;9.526;2023-03-24T04:29:02;13.50;99.90
18805;DHT22;9530;48.930;9.526;2023-03-24T04:31:33;13.40;99.90
18805;DHT22;9530;48.930;9.526;2023-03-24T04:34:06;13.40;99.90
18805;DHT22;9530;48.930;9.526;2023-03-24T04:36:36;13.30;99.90
18805;DHT22;9530;48.930;9.526;2023-03-24T04:39:08;13.10;99.90
18805;DHT22;9530;48.930;9.526;2023-03-24T04:41:36;13.00;99.90
18805;DHT22;9530;48.930;9.526;2023-03-24T04:44:03;13.10;99.90
18805;DHT22;9530;48.930;9.526;2023-03-24T04:46:32;13.00;99.90
18805;DHT22;9530;48.930;9.526;2023-03-24T04:49:00;13.00;99.90
18805;DHT22;9530;48.930;9.526;2023-03-24T04:51:27;12.90;99.90
18805;DHT22;9530;48.930;9.526;2023-03-24T04:53:54;13.00;99.90
18805;DHT22;9530;48.930;9.526;2023-03-24T04:56:33;13.00;99.90
18805;DHT22;9530;48.930;9.526;2023-03-24T04:59:02;13.00;99.90
18805;DHT22;9530;48.930;9.526;2023-03-24T05:01:28;13.10;99.90
18805;DHT22;9530;48.930;9.526;2023-03-24T05:03:57;13.10;99.90
18805;DHT22;9530;48.930;9.526;2023-03-24T05:06:25;13.10;99.90
18805;DHT22;9530;48.930;9.526;2023-03-24T05:08:52;13.20;99.90
18805;DHT22;9530;48.930;9.526;2023-03-24T05:11:19;13.30;99.90
18805;DHT22;9530;48.930;9.526;2023-03-24T05:13:46;13.30;99.90
18805;DHT22;9530;48.930;9.526;2023-03-24T05:16:13;13.40;99.90
18805;DHT22;9530;48.930;9.526;2023-03-24T05:18:40;13.40;99.90
18805;DHT22;9530;48.930;9.526;2023-03-24T05:21:08;13.70;99.90
18805;DHT22;9530;48.930;9.526;2023-03-24T05:23:35;13.80;99.90
18805;DHT22;9530;48.930;9.526;2023-03-24T05:26:03;14.00;99.90
18805;DHT22;9530;48.930;9.526;2023-03-24T05:28:30;14.10;99.90
18805;DHT22;9530;48.930;9.526;2023-03-24T05:30:56;14.40;99.90
18805;DHT22;9530;48.930;9.526;2023-03-24T05:33:23;14.50;99.90
18805;DHT22;9530;48.930;9.526;2023-03-24T05:35:50;14.70;99.90
18805;DHT22;9530;48.930;9.526;2023-03-24T05:38:18;14.90;99.90
18805;DHT22;9530;48.930;9.526;2023-03-24T05:40:45;14.90;99.90
18805;DHT22;9530;48.930;9.526;2023-03-24T05:43:11;15.00;99.90
18805;DHT22;9530;48.930;9.526;2023-03-24T05:45:38;15.00;99.90
18805;DHT22;9530;48.930;9.526;2023-03-24T05:48:05;15.00;99.90
18805;DHT22;9530;48.930;9.526;2023-03-24T05:50:32;14.80;99.90
18805;DHT22;9530;48.930;9.526;2023-03-24T05:52:59;14.60;99.90
18805;DHT22;9530;48.930;9.526;2023-03-24T05:55:27;14.30;99.90
18805;DHT22;9530;48.930;9.526;2023-03-24T05:57:55;14.10;99.90
18805;DHT22;9530;48.930;9.526;2023-03-24T06:00:21;13.90;99.90
18805;DHT22;9530;48.930;9.526;2023-03-24T06:02:49;13.70;99.90
18805;DHT22;9530;48.930;9.526;2023-03-24T06:05:16;13.60;99.90
18805;DHT22;9530;48.930;9.526;2023-03-24T06:07:42;13.50;99.90
18805;DHT22;9530;48.930;9.526;2023-03-24T06:10:09;13.40;99.90
18805;DHT22;9530;48.930;9.526;2023-03-24T06:12:40;13.30;99.90
18805;DHT22;9530;48.930;9.526;2023-03-24T06:15:08;13.30;99.90
18805;DHT22;9530;48.930;9.526;2023-03-24T06:17:35;13.20;99.90
18805;DHT22;9530;48.930;9.526;2023-03-24T06:20:03;13.10;99.90
18805;DHT22;9530;48.930;9.526;2023-03-24T06:22:33;13.10;99.90
18805;DHT22;9530;48.930;9.526;2023-03-24T06:25:00;13.00;99.90
18805;DHT22;9530;48.930;9.526;2023-03-24T06:27:29;13.00;99.90
18805;DHT22;9530;48.930;9.526;2023-03-24T06:29:58;12.90;99.90
18805;DHT22;9530;48.930;9.526;2023-03-24T06:32:25;12.80;99.90
18805;DHT22;9530;48.930;9.526;2023-03-24T06:34:52;12.70;99.90
18805;DHT22;9530;48.930;9.526;2023-03-24T06:37:21;12.70;99.90
18805;DHT22;9530;48.930;9.526;2023-03-24T06:39:48;12.50;99.90
18805;DHT22;9530;48.930;9.526;2023-03-24T06:42:14;12.50;99.90
18805;DHT22;9530;48.930;9.526;2023-03-24T06:44:42;12.40;99.90
18805;DHT22;9530;48.930;9.526;2023-03-24T06:47:11;12.40;99.90
18805;DHT22;9530;48.930;9.526;2023-03-24T06:49:37;12.30;99.90
18805;DHT22;9530;48.930;9.526;2023-03-24T06:52:04;12.40;99.90
18805;DHT22;9530;48.930;9.526;2023-03-24T06:54:31;12.30;99.90
18805;DHT22;9530;48.930;9.526;2023-03-24T06:56:57;12.20;99.90
18805;DHT22;9530;48.930;9.526;2023-03-24T06:59:24;12.30;99.90
18805;DHT22;9530;48.930;9.526;2023-03-24T07:01:52;12.30;99.90
18805;DHT22;9530;48.930;9.526;2023-03-24T07:04:21;12.20;99.90
18805;DHT22;9530;48.930;9.526;2023-03-24T07:06:50;12.30;99.90
18805;DHT22;9530;48.930;9.526;2023-03-24T07:09:16;12.20;99.90
18805;DHT22;9530;48.930;9.526;2023-03-24T07:11:44;12.20;99.90
18805;DHT22;9530;48.930;9.526;2023-03-24T07:14:10;12.20;99.90
18805;DHT22;9530;48.930;9.526;2023-03-24T07:16:37;12.20;99.90
18805;DHT22;9530;48.930;9.526;2023-03-24T07:19:04;12.20;99.90
18805;DHT22;9530;48.930;9.526;2023-03-24T07:21:32;12.30;99.90
18805;DHT22;9530;48.930;9.526;2023-03-24T07:23:58;12.20;99.90
18805;DHT22;9530;48.930;9.526;2023-03-24T07:26:26;12.20;99.90
18805;DHT22;9530;48.930;9.526;2023-03-24T07:28:53;12.30;99.90
18805;DHT22;9530;48.930;9.526;2023-03-24T07:31:20;12.30;99.90
18805;DHT22;9530;48.930;9.526;2023-03-24T07:33:47;12.40;99.90
18805;DHT22;9530;48.930;9.526;2023-03-24T07:36:13;12.40;99.90
18805;DHT22;9530;48.930;9.526;2023-03-24T07:38:42;12.50;99.90
18805;DHT22;9530;48.930;9.526;2023-03-24T07:41:09;12.60;99.90
18805;DHT22;9530;48.930;9.526;2023-03-24T07:43:35;12.60;99.90
18805;DHT22;9530;48.930;9.526;2023-03-24T07:46:02;12.60;99.90
18805;DHT22;9530;48.930;9.526;2023-03-24T07:48:29;12.70;99.90
18805;DHT22;9530;48.930;9.526;2023-03-24T07:50:56;12.60;99.90
18805;DHT22;9530;48.930;9.526;2023-03-24T07:53:22;12.60;99.90
18805;DHT22;9530;48.930;9.526;2023-03-24T07:55:50;12.70;99.90
18805;DHT22;9530;48.930;9.526;2023-03-24T07:58:17;12.70;99.90
18805;DHT22;9530;48.930;9.526;2023-03-24T08:00:44;12.70;99.90
18805;DHT22;9530;48.930;9.526;2023-03-24T08:03:11;12.70;99.90
18805;DHT22;9530;48.930;9.526;2023-03-24T08:05:40;12.80;99.90
18805;DHT22;9530;48.930;9.526;2023-03-24T08:08:08;12.80;99.90
18805;DHT22;9530;48.930;9.526;2023-03-24T08:10:35;12.70;99.90
18805;DHT22;9530;48.930;9.526;2023-03-24T08:13:03;12.70;99.90
18805;DHT22;9530;48.930;9.526;2023-03-24T08:15:30;12.80;99.90
18805;DHT22;9530;48.930;9.526;2023-03-24T08:17:57;12.70;99.90
18805;DHT22;9530;48.930;9.526;2023-03-24T08:20:24;12.70;99.90
18805;DHT22;9530;48.930;9.526;2023-03-24T08:22:52;12.80;99.90
18805;DHT22;9530;48.930;9.526;2023-03-24T08:25:20;12.80;99.90
18805;DHT22;9530;48.930;9.526;2023-03-24T08:27:47;12.80;99.90
18805;DHT22;9530;48.930;9.526;2023-03-24T08:30:17;12.90;99.90
18805;DHT22;9530;48.930;9.526;2023-03-24T08:32:46;12.80;99.90
18805;DHT22;9530;48.930;9.526;2023-03-24T08:35:14;12.90;99.90
18805;DHT22;9530;48.930;9.526;2023-03-24T08:37:43;12.90;99.90
18805;DHT22;9530;48.930;9.526;2023-03-24T08:40:12;13.00;99.90
18805;DHT22;9530;48.930;9.526;2023-03-24T08:42:41;13.00;99.90
18805;DHT22;9530;48.930;9.526;2023-03-24T08:45:11;13.00;99.90
18805;DHT22;9530;48.930;9.526;2023-03-24T08:47:39;13.00;99.90
18805;DHT22;9530;48.930;9.526;2023-03-24T08:50:07;13.10;99.90
18805;DHT22;9530;48.930;9.526;2023-03-24T08:52:34;13.20;99.90
18805;DHT22;9530;48.930;9.526;2023-03-24T08:55:01;13.20;99.90
18805;DHT22;9530;48.930;9.526;2023-03-24T08:57:28;13.20;99.90
18805;DHT22;9530;48.930;9.526;2023-03-24T08:59:55;13.40;99.90
18805;DHT22;9530;48.930;9.526;2023-03-24T09:02:22;13.50;99.90
18805;DHT22;9530;48.930;9.526;2023-03-24T09:04:50;13.50;99.90
18805;DHT22;9530;48.930;9.526;2023-03-24T09:07:18;13.70;99.90
18805;DHT22;9530;48.930;9.526;2023-03-24T09:09:45;13.80;99.90
18805;DHT22;9530;48.930;9.526;2023-03-24T09:12:12;13.90;99.90
18805;DHT22;9530;48.930;9.526;2023-03-24T09:14:39;13.80;99.90
18805;DHT22;9530;48.930;9.526;2023-03-24T09:17:05;13.80;99.90
18805;DHT22;9530;48.930;9.526;2023-03-24T09:19:32;13.80;99.90
18805;DHT22;9530;48.930;9.526;2023-03-24T09:22:01;13.80;99.90
18805;DHT22;9530;48.930;9.526;2023-03-24T09:24:27;13.80;99.90
18805;DHT22;9530;48.930;9.526;2023-03-24T09:26:54;13.80;99.90
18805;DHT22;9530;48.930;9.526;2023-03-24T09:29:21;13.80;99.90
18805;DHT22;9530;48.930;9.526;2023-03-24T09:31:47;13.80;99.90
18805;DHT22;9530;48.930;9.526;2023-03-24T09:34:14;13.90;99.90
18805;DHT22;9530;48.930;9.526;2023-03-24T09:36:41;13.90;99.90
18805;DHT22;9530;48.930;9.526;2023-03-24T09:39:09;13.80;99.90
18805;DHT22;9530;48.930;9.526;2023-03-24T09:41:36;13.80;99.90
18805;DHT22;9530;48.930;9.526;2023-03-24T09:44:06;13.80;99.90
18805;DHT22;9530;48.930;9.526;2023-03-24T09:46:38;13.70;99.90
18805;DHT22;9530;48.930;9.526;2023-03-24T09:49:11;13.80;99.90
18805;DHT22;9530;48.930;9.526;2023-03-24T09:51:42;13.70;99.90
18805;DHT22;9530;48.930;9.526;2023-03-24T09:54:15;13.70;99.90
18805;DHT22;9530;48.930;9.526;2023-03-24T09:56:45;13.70;99.90
18805;DHT22;9530;48.930;9.526;2023-03-24T09:59:17;13.80;99.90
18805;DHT22;9530;48.930;9.526;2023-03-24T10:01:44;13.80;99.90
18805;DHT22;9530;48.930;9.526;2023-03-24T10:04:13;14.00;99.90
18805;DHT22;9530;48.930;9.526;2023-03-24T10:06:41;14.10;99.90
18805;DHT22;9530;48.930;9.526;2023-03-24T10:09:25;14.20;99.90
18805;DHT22;9530;48.930;9.526;2023-03-24T10:12:10;14.30;99.90
18805;DHT22;9530;48.930;9.526;2023-03-24T10:14:50;14.40;99.90
18805;DHT22;9530;48.930;9.526;2023-03-24T10:17:23;14.80;99.90
18805;DHT22;9530;48.930;9.526;2023-03-24T10:19:56;14.90;99.90
18805;DHT22;9530;48.930;9.526;2023-03-24T10:22:28;15.20;99.90
18805;DHT22;9530;48.930;9.526;2023-03-24T10:25:02;15.50;99.90
18805;DHT22;9530;48.930;9.526;2023-03-24T10:27:35;15.70;99.90
18805;DHT22;9530;48.930;9.526;2023-03-24T10:30:10;15.90;99.90
18805;DHT22;9530;48.930;9.526;2023-03-24T10:32:37;15.90;99.90
18805;DHT22;9530;48.930;9.526;2023-03-24T10:35:06;15.90;99.90
18805;DHT22;9530;48.930;9.526;2023-03-24T10:37:39;15.80;99.90
18805;DHT22;9530;48.930;9.526;2023-03-24T10:40:14;15.70;99.90
18805;DHT22;9530;48.930;9.526;2023-03-24T10:42:43;15.60;99.90
18805;DHT22;9530;48.930;9.526;2023-03-24T10:45:11;15.60;99.90
18805;DHT22;9530;48.930;9.526;2023-03-24T10:47:39;15.60;99.90
18805;DHT22;9530;48.930;9.526;2023-03-24T10:50:07;15.50;99.90
18805;DHT22;9530;48.930;9.526;2023-03-24T10:52:38;15.40;99.90
18805;DHT22;9530;48.930;9.526;2023-03-24T10:55:06;15.10;99.90
18805;DHT22;9530;48.930;9.526;2023-03-24T10:57:34;15.00;99.90
18805;DHT22;9530;48.930;9.526;2023-03-24T11:00:07;15.00;99.90
18805;DHT22;9530;48.930;9.526;2023-03-24T11:02:40;15.00;99.90
18805;DHT22;9530;48.930;9.526;2023-03-24T11:05:13;15.00;99.90
18805;DHT22;9530;48.930;9.526;2023-03-24T11:07:43;15.10;99.90
18805;DHT22;9530;48.930;9.526;2023-03-24T11:10:14;15.20;99.90
18805;DHT22;9530;48.930;9.526;2023-03-24T11:12:59;15.30;99.90
18805;DHT22;9530;48.930;9.526;2023-03-24T11:15:29;15.40;99.90
18805;DHT22;9530;48.930;9.526;2023-03-24T11:17:57;15.40;99.90
18805;DHT22;9530;48.930;9.526;2023-03-24T11:20:30;15.40;99.90
18805;DHT22;9530;48.930;9.526;2023-03-24T11:23:02;15.40;99.90
18805;DHT22;9530;48.930;9.526;2023-03-24T11:25:31;15.70;99.90
18805;DHT22;9530;48.930;9.526;2023-03-24T11:28:02;15.90;99.90
18805;DHT22;9530;48.930;9.526;2023-03-24T11:30:33;16.00;99.90
18805;DHT22;9530;48.930;9.526;2023-03-24T11:33:01;16.10;99.90
18805;DHT22;9530;48.930;9.526;2023-03-24T11:35:29;16.40;99.90
18805;DHT22;9530;48.930;9.526;2023-03-24T11:38:02;16.60;99.90
18805;DHT22;9530;48.930;9.526;2023-03-24T11:40:29;16.70;99.90
18805;DHT22;9530;48.930;9.526;2023-03-24T11:42:57;16.80;99.90
18805;DHT22;9530;48.930;9.526;2023-03-24T11:45:29;16.90;99.90
18805;DHT22;9530;48.930;9.526;2023-03-24T11:48:01;17.10;99.90
18805;DHT22;9530;48.930;9.526;2023-03-24T11:50:32;17.20;99.90
18805;DHT22;9530;48.930;9.526;2023-03-24T11:53:02;17.30;99.90
18805;DHT22;9530;48.930;9.526;2023-03-24T11:55:35;17.50;99.90
18805;DHT22;9530;48.930;9.526;2023-03-24T11:58:10;17.60;99.90
18805;DHT22;9530;48.930;9.526;2023-03-24T12:00:43;17.60;99.90
18805;DHT22;9530;48.930;9.526;2023-03-24T12:06:44;17.20;99.90
18805;DHT22;9530;48.930;9.526;2023-03-24T12:09:21;17.00;99.90
18805;DHT22;9530;48.930;9.526;2023-03-24T12:12:04;17.10;99.90
18805;DHT22;9530;48.930;9.526;2023-03-24T12:14:45;17.20;99.90
18805;DHT22;9530;48.930;9.526;2023-03-24T12:17:21;17.10;99.90
18805;DHT22;9530;48.930;9.526;2023-03-24T12:20:03;16.70;99.90
18805;DHT22;9530;48.930;9.526;2023-03-24T12:22:44;16.00;99.90
18805;DHT22;9530;48.930;9.526;2023-03-24T12:25:34;15.40;99.90
18805;DHT22;9530;48.930;9.526;2023-03-24T12:28:17;15.10;99.90
18805;DHT22;9530;48.930;9.526;2023-03-24T12:30:55;14.90;99.90
18805;DHT22;9530;48.930;9.526;2023-03-24T12:33:36;14.70;99.90
18805;DHT22;9530;48.930;9.526;2023-03-24T12:36:14;14.50;99.90
18805;DHT22;9530;48.930;9.526;2023-03-24T12:38:55;14.60;99.90
18805;DHT22;9530;48.930;9.526;2023-03-24T12:41:49;14.90;99.90
18805;DHT22;9530;48.930;9.526;2023-03-24T12:44:31;15.20;99.90
18805;DHT22;9530;48.930;9.526;2023-03-24T12:47:09;15.60;99.90
18805;DHT22;9530;48.930;9.526;2023-03-24T12:49:59;15.80;99.90
18805;DHT22;9530;48.930;9.526;2023-03-24T12:52:43;16.00;99.90
18805;DHT22;9530;48.930;9.526;2023-03-24T12:55:15;16.00;99.90
18805;DHT22;9530;48.930;9.526;2023-03-24T12:57:46;15.90;99.90
18805;DHT22;9530;48.930;9.526;2023-03-24T13:00:19;15.80;99.90
18805;DHT22;9530;48.930;9.526;2023-03-24T13:02:50;15.70;99.90
18805;DHT22;9530;48.930;9.526;2023-03-24T13:05:22;15.60;99.90
18805;DHT22;9530;48.930;9.526;2023-03-24T13:07:55;15.60;99.90
18805;DHT22;9530;48.930;9.526;2023-03-24T13:10:26;15.60;99.90
18805;DHT22;9530;48.930;9.526;2023-03-24T13:12:57;15.50;99.90
18805;DHT22;9530;48.930;9.526;2023-03-24T13:15:30;15.40;99.90
18805;DHT22;9530;48.930;9.526;2023-03-24T13:18:05;15.40;99.90
18805;DHT22;9530;48.930;9.526;2023-03-24T13:20:42;15.50;99.90
18805;DHT22;9530;48.930;9.526;2023-03-24T13:23:24;15.50;99.90
18805;DHT22;9530;48.930;9.526;2023-03-24T13:25:58;15.50;99.90
18805;DHT22;9530;48.930;9.526;2023-03-24T13:28:33;15.40;99.90
18805;DHT22;9530;48.930;9.526;2023-03-24T13:31:04;15.40;99.90
18805;DHT22;9530;48.930;9.526;2023-03-24T13:33:36;15.30;99.90
18805;DHT22;9530;48.930;9.526;2023-03-24T13:36:15;15.30;99.90
18805;DHT22;9530;48.930;9.526;2023-03-24T13:38:47;14.60;99.90
18805;DHT22;9530;48.930;9.526;2023-03-24T13:41:18;14.00;99.90
18805;DHT22;9530;48.930;9.526;2023-03-24T13:43:47;13.60;99.90
18805;DHT22;9530;48.930;9.526;2023-03-24T13:46:14;13.40;99.90
18805;DHT22;9530;48.930;9.526;2023-03-24T13:48:42;13.20;99.90
18805;DHT22;9530;48.930;9.526;2023-03-24T13:51:16;13.00;99.90
18805;DHT22;9530;48.930;9.526;2023-03-24T13:53:45;12.80;99.90
18805;DHT22;9530;48.930;9.526;2023-03-24T13:56:23;12.70;99.90
18805;DHT22;9530;48.930;9.526;2023-03-24T13:59:06;12.70;99.90
18805;DHT22;9530;48.930;9.526;2023-03-24T14:01:36;12.60;99.90
18805;DHT22;9530;48.930;9.526;2023-03-24T14:04:26;12.60;99.90
18805;DHT22;9530;48.930;9.526;2023-03-24T14:06:55;12.50;99.90
18805;DHT22;9530;48.930;9.526;2023-03-24T14:09:23;12.50;99.90
18805;DHT22;9530;48.930;9.526;2023-03-24T14:12:16;12.50;99.90
18805;DHT22;9530;48.930;9.526;2023-03-24T14:15:02;12.40;99.90
18805;DHT22;9530;48.930;9.526;2023-03-24T14:17:34;12.20;99.90
18805;DHT22;9530;48.930;9.526;2023-03-24T14:20:15;12.10;99.90
18805;DHT22;9530;48.930;9.526;2023-03-24T14:22:51;12.10;99.90
18805;DHT22;9530;48.930;9.526;2023-03-24T14:25:23;12.00;99.90
18805;DHT22;9530;48.930;9.526;2023-03-24T14:27:52;12.00;99.90
18805;DHT22;9530;48.930;9.526;2023-03-24T14:30:20;11.90;99.90
18805;DHT22;9530;48.930;9.526;2023-03-24T14:32:51;11.80;99.90
18805;DHT22;9530;48.930;9.526;2023-03-24T14:35:23;11.60;99.90
18805;DHT22;9530;48.930;9.526;2023-03-24T14:37:54;11.50;99.90
18805;DHT22;9530;48.930;9.526;2023-03-24T14:40:24;11.40;99.90
18805;DHT22;9530;48.930;9.526;2023-03-24T14:42:54;11.30;99.90
18805;DHT22;9530;48.930;9.526;2023-03-24T14:45:39;11.20;99.90
18805;DHT22;9530;48.930;9.526;2023-03-24T14:48:26;11.10;99.90
18805;DHT22;9530;48.930;9.526;2023-03-24T14:50:57;11.20;99.90
18805;DHT22;9530;48.930;9.526;2023-03-24T14:53:27;11.20;99.90
18805;DHT22;9530;48.930;9.526;2023-03-24T14:55:55;11.20;99.90
18805;DHT22;9530;48.930;9.526;2023-03-24T14:58:25;11.30;99.90
18805;DHT22;9530;48.930;9.526;2023-03-24T15:01:01;11.30;99.90
18805;DHT22;9530;48.930;9.526;2023-03-24T15:03:33;11.30;99.90
18805;DHT22;9530;48.930;9.526;2023-03-24T15:06:13;11.40;99.90
18805;DHT22;9530;48.930;9.526;2023-03-24T15:08:48;11.50;99.90
18805;DHT22;9530;48.930;9.526;2023-03-24T15:11:18;11.50;99.90
18805;DHT22;9530;48.930;9.526;2023-03-24T15:13:48;11.50;99.90
18805;DHT22;9530;48.930;9.526;2023-03-24T15:16:19;11.40;99.90
18805;DHT22;9530;48.930;9.526;2023-03-24T15:18:47;11.30;99.90
18805;DHT22;9530;48.930;9.526;2023-03-24T15:21:21;11.40;99.90
18805;DHT22;9530;48.930;9.526;2023-03-24T15:23:49;11.30;99.90
18805;DHT22;9530;48.930;9.526;2023-03-24T15:26:18;11.30;99.90
18805;DHT22;9530;48.930;9.526;2023-03-24T15:28:52;11.30;99.90
18805;DHT22;9530;48.930;9.526;2023-03-24T15:31:19;11.30;99.90
18805;DHT22;9530;48.930;9.526;2023-03-24T15:33:47;11.30;99.90
18805;DHT22;9530;48.930;9.526;2023-03-24T15:36:15;11.30;99.90
18805;DHT22;9530;48.930;9.526;2023-03-24T15:38:47;11.30;99.90
18805;DHT22;9530;48.930;9.526;2023-03-24T15:41:18;11.30;99.90
18805;DHT22;9530;48.930;9.526;2023-03-24T15:43:48;11.30;99.90
18805;DHT22;9530;48.930;9.526;2023-03-24T15:46:25;11.20;99.90
18805;DHT22;9530;48.930;9.526;2023-03-24T15:48:53;11.20;99.90
18805;DHT22;9530;48.930;9.526;2023-03-24T15:51:46;11.40;99.90
18805;DHT22;9530;48.930;9.526;2023-03-24T15:54:20;11.30;99.90
18805;DHT22;9530;48.930;9.526;2023-03-24T15:57:12;11.30;99.90
18805;DHT22;9530;48.930;9.526;2023-03-24T15:59:45;11.30;99.90
18805;DHT22;9530;48.930;9.526;2023-03-24T16:02:18;11.30;99.90
18805;DHT22;9530;48.930;9.526;2023-03-24T16:04:48;11.30;99.90
18805;DHT22;9530;48.930;9.526;2023-03-24T16:07:21;11.30;99.90
18805;DHT22;9530;48.930;9.526;2023-03-24T16:09:58;11.30;99.90
18805;DHT22;9530;48.930;9.526;2023-03-24T16:12:32;11.30;99.90
18805;DHT22;9530;48.930;9.526;2023-03-24T16:14:59;11.40;99.90
18805;DHT22;9530;48.930;9.526;2023-03-24T16:17:26;11.40;99.90
18805;DHT22;9530;48.930;9.526;2023-03-24T16:19:52;11.40;99.90
18805;DHT22;9530;48.930;9.526;2023-03-24T16:22:19;11.40;99.90